sensor_id;sensor_type;location;lat;lon;timestamp;pressure;altitude;pressure_sealevel;temperature;humidity
10145;BME280;5113;41.822;23.564;2023-12-22T00:01:59;-11055.44;;;4.38;55.95
10145;BME280;5113;41.822;23.564;2023-12-22T00:05:07;-11036.38;;;3.69;56.88
10145;BME280;5113;41.822;23.564;2023-12-22T00:08:14;-11072.00;;;4.98;53.96
10145;BME280;5113;41.822;23.564;2023-12-22T00:11:21;-11084.06;;;5.42;53.17
10145;BME280;5113;41.822;23.564;2023-12-22T00:14:28;-11059.38;;;4.52;54.19
10145;BME280;5113;41.822;23.564;2023-12-22T00:17:36;-11077.06;;;5.16;53.82
10145;BME280;5113;41.822;23.564;2023-12-22T00:20:43;-11036.50;;;3.70;56.75
10145;BME280;5113;41.822;23.564;2023-12-22T00:23:49;-11071.44;;;4.96;55.20
10145;BME280;5113;41.822;23.564;2023-12-22T00:26:57;-11086.88;;;5.52;54.42
10145;BME280;5113;41.822;23.564;2023-12-22T00:30:05;-11075.09;;;5.09;55.32
10145;BME280;5113;41.822;23.564;2023-12-22T00:33:14;-11072.00;;;4.98;55.99
10145;BME280;5113;41.822;23.564;2023-12-22T00:36:21;-11084.06;;;5.42;55.04
10145;BME280;5113;41.822;23.564;2023-12-22T00:39:29;-11092.38;;;5.72;54.38
10145;BME280;5113;41.822;23.564;2023-12-22T00:42:36;-11073.41;;;5.03;56.20
10145;BME280;5113;41.822;23.564;2023-12-22T00:45:42;-11042.69;;;3.92;58.54
10145;BME280;5113;41.822;23.564;2023-12-22T00:48:50;-11078.47;;;5.21;55.90
10145;BME280;5113;41.822;23.564;2023-12-22T00:51:58;-11067.22;;;4.81;58.70
10145;BME280;5113;41.822;23.564;2023-12-22T00:55:05;-11085.63;;;5.47;56.21
10145;BME280;5113;41.822;23.564;2023-12-22T00:58:12;-11086.31;;;5.50;55.51
10145;BME280;5113;41.822;23.564;2023-12-22T01:01:18;-11061.34;;;4.59;57.30
10145;BME280;5113;41.822;23.564;2023-12-22T01:04:28;-11102.62;;;6.09;55.45
10145;BME280;5113;41.822;23.564;2023-12-22T01:07:34;-11092.50;;;5.72;54.81
10145;BME280;5113;41.822;23.564;2023-12-22T01:10:41;-11075.66;;;5.11;56.09
10145;BME280;5113;41.822;23.564;2023-12-22T01:13:48;-11090.25;;;5.64;55.12
10145;BME280;5113;41.822;23.564;2023-12-22T01:16:55;-11081.84;;;5.34;55.46
10145;BME280;5113;41.822;23.564;2023-12-22T01:20:03;-11106.84;;;6.24;54.05
10145;BME280;5113;41.822;23.564;2023-12-22T01:23:10;-11101.22;;;6.04;53.63
10145;BME280;5113;41.822;23.564;2023-12-22T01:26:17;-11096.56;;;5.87;54.69
10145;BME280;5113;41.822;23.564;2023-12-22T01:29:23;-11109.22;;;6.33;53.49
10145;BME280;5113;41.822;23.564;2023-12-22T01:32:30;-11114.97;;;6.53;52.66
10145;BME280;5113;41.822;23.564;2023-12-22T01:35:41;-11113.84;;;6.49;53.41
10145;BME280;5113;41.822;23.564;2023-12-22T01:38:48;-11122.69;;;6.81;52.23
10145;BME280;5113;41.822;23.564;2023-12-22T01:41:55;-11119.75;;;6.71;52.48
10145;BME280;5113;41.822;23.564;2023-12-22T01:45:01;-11100.94;;;6.03;53.07
10145;BME280;5113;41.822;23.564;2023-12-22T01:48:08;-11102.06;;;6.07;53.35
10145;BME280;5113;41.822;23.564;2023-12-22T01:51:17;-11118.75;;;6.67;52.72
10145;BME280;5113;41.822;23.564;2023-12-22T01:54:24;-11112.03;;;6.43;52.66
10145;BME280;5113;41.822;23.564;2023-12-22T01:57:31;-11093.63;;;5.76;53.70
10145;BME280;5113;41.822;23.564;2023-12-22T02:00:39;-11078.31;;;5.21;54.59
10145;BME280;5113;41.822;23.564;2023-12-22T02:03:48;-11109.06;;;6.32;52.99
10145;BME280;5113;41.822;23.564;2023-12-22T02:07:01;-11115.53;;;6.55;52.64
10145;BME280;5113;41.822;23.564;2023-12-22T02:10:08;-11071.03;;;4.94;55.56
10145;BME280;5113;41.822;23.564;2023-12-22T02:13:15;-11107.13;;;6.25;53.02
10145;BME280;5113;41.822;23.564;2023-12-22T02:16:27;-11095.31;;;5.82;54.00
10145;BME280;5113;41.822;23.564;2023-12-22T02:19:42;-11111.59;;;6.41;53.46
10145;BME280;5113;41.822;23.564;2023-12-22T02:22:52;-11090.25;;;5.64;54.94
10145;BME280;5113;41.822;23.564;2023-12-22T02:26:06;-11064.00;;;4.69;56.30
10145;BME280;5113;41.822;23.564;2023-12-22T02:29:16;-11091.38;;;5.68;54.50
10145;BME280;5113;41.822;23.564;2023-12-22T02:32:27;-11099.25;;;5.96;54.13
10145;BME280;5113;41.822;23.564;2023-12-22T02:35:36;-11096.16;;;5.85;54.38
10145;BME280;5113;41.822;23.564;2023-12-22T02:38:48;-11112.16;;;6.43;53.25
10145;BME280;5113;41.822;23.564;2023-12-22T02:41:56;-11098.97;;;5.95;53.86
10145;BME280;5113;41.822;23.564;2023-12-22T02:45:04;-11118.47;;;6.66;52.87
10145;BME280;5113;41.822;23.564;2023-12-22T02:48:11;-11104.72;;;6.16;52.67
10145;BME280;5113;41.822;23.564;2023-12-22T02:51:18;-11074.25;;;5.06;55.78
10145;BME280;5113;41.822;23.564;2023-12-22T02:54:26;-11104.59;;;6.16;53.90
10145;BME280;5113;41.822;23.564;2023-12-22T02:57:35;-11118.47;;;6.66;52.68
10145;BME280;5113;41.822;23.564;2023-12-22T03:00:43;-11096.56;;;5.87;54.32
10145;BME280;5113;41.822;23.564;2023-12-22T03:03:49;-11089.41;;;5.61;54.30
10145;BME280;5113;41.822;23.564;2023-12-22T03:06:56;-11088.00;;;5.56;54.49
10145;BME280;5113;41.822;23.564;2023-12-22T03:10:04;-11081.69;;;5.33;55.87
10145;BME280;5113;41.822;23.564;2023-12-22T03:13:11;-11118.34;;;6.66;53.49
10145;BME280;5113;41.822;23.564;2023-12-22T03:16:18;-11113.56;;;6.48;53.29
10145;BME280;5113;41.822;23.564;2023-12-22T03:19:24;-11080.16;;;5.27;55.73
10145;BME280;5113;41.822;23.564;2023-12-22T03:22:31;-11100.78;;;6.02;53.98
10145;BME280;5113;41.822;23.564;2023-12-22T03:25:39;-11076.06;;;5.13;55.93
10145;BME280;5113;41.822;23.564;2023-12-22T03:28:46;-11063.03;;;4.65;56.92
10145;BME280;5113;41.822;23.564;2023-12-22T03:31:53;-11064.44;;;4.71;56.59
10145;BME280;5113;41.822;23.564;2023-12-22T03:34:59;-11092.66;;;5.73;55.03
10145;BME280;5113;41.822;23.564;2023-12-22T03:38:07;-11113.00;;;6.46;53.60
10145;BME280;5113;41.822;23.564;2023-12-22T03:41:15;-11051.78;;;4.25;58.54
10145;BME280;5113;41.822;23.564;2023-12-22T03:44:21;-11063.88;;;4.69;58.29
10145;BME280;5113;41.822;23.564;2023-12-22T03:47:30;-11088.72;;;5.58;56.69
10145;BME280;5113;41.822;23.564;2023-12-22T03:50:37;-11104.03;;;6.14;54.84
10145;BME280;5113;41.822;23.564;2023-12-22T03:53:44;-11083.94;;;5.41;56.16
10145;BME280;5113;41.822;23.564;2023-12-22T03:56:52;-11130.41;;;7.09;53.43
10145;BME280;5113;41.822;23.564;2023-12-22T03:59:59;-11103.47;;;6.12;55.28
10145;BME280;5113;41.822;23.564;2023-12-22T04:03:05;-11110.06;;;6.36;55.22
10145;BME280;5113;41.822;23.564;2023-12-22T04:06:12;-11106.41;;;6.22;55.58
10145;BME280;5113;41.822;23.564;2023-12-22T04:09:19;-11118.63;;;6.67;54.31
10145;BME280;5113;41.822;23.564;2023-12-22T04:12:27;-11132.53;;;7.17;52.63
10145;BME280;5113;41.822;23.564;2023-12-22T04:15:34;-11116.38;;;6.58;54.19
10145;BME280;5113;41.822;23.564;2023-12-22T04:18:41;-11109.63;;;6.34;54.93
10145;BME280;5113;41.822;23.564;2023-12-22T04:21:47;-11115.97;;;6.57;54.46
10145;BME280;5113;41.822;23.564;2023-12-22T04:24:54;-11117.94;;;6.64;54.46
10145;BME280;5113;41.822;23.564;2023-12-22T04:28:04;-11125.66;;;6.92;54.67
10145;BME280;5113;41.822;23.564;2023-12-22T04:31:10;-11112.31;;;6.44;55.14
10145;BME280;5113;41.822;23.564;2023-12-22T04:34:17;-11116.38;;;6.58;54.85
10145;BME280;5113;41.822;23.564;2023-12-22T04:37:24;-11130.69;;;7.10;53.92
10145;BME280;5113;41.822;23.564;2023-12-22T04:40:31;-11136.03;;;7.29;53.46
10145;BME280;5113;41.822;23.564;2023-12-22T04:43:39;-11141.38;;;7.49;53.48
10145;BME280;5113;41.822;23.564;2023-12-22T04:46:46;-11128.19;;;7.01;53.80
10145;BME280;5113;41.822;23.564;2023-12-22T04:49:52;-11136.31;;;7.31;53.58
10145;BME280;5113;41.822;23.564;2023-12-22T04:53:01;-11136.47;;;7.31;53.11
10145;BME280;5113;41.822;23.564;2023-12-22T04:56:07;-11153.75;;;7.93;52.12
10145;BME280;5113;41.822;23.564;2023-12-22T04:59:16;-11157.97;;;8.09;51.98
10145;BME280;5113;41.822;23.564;2023-12-22T05:02:22;-11138.44;;;7.38;52.52
10145;BME280;5113;41.822;23.564;2023-12-22T05:05:29;-11147.00;;;7.69;52.41
10145;BME280;5113;41.822;23.564;2023-12-22T05:08:36;-11152.19;;;7.88;51.73
10145;BME280;5113;41.822;23.564;2023-12-22T05:11:42;-11167.81;;;8.44;50.77
10145;BME280;5113;41.822;23.564;2023-12-22T05:14:52;-11152.91;;;7.90;52.69
10145;BME280;5113;41.822;23.564;2023-12-22T05:17:59;-11150.78;;;7.83;52.56
10145;BME280;5113;41.822;23.564;2023-12-22T05:21:06;-11168.66;;;8.47;50.93
10145;BME280;5113;41.822;23.564;2023-12-22T05:24:13;-11155.84;;;8.01;51.90
10145;BME280;5113;41.822;23.564;2023-12-22T05:27:20;-11153.31;;;7.92;52.34
10145;BME280;5113;41.822;23.564;2023-12-22T05:30:28;-11108.94;;;6.32;56.67
10145;BME280;5113;41.822;23.564;2023-12-22T05:33:35;-11152.47;;;7.89;53.51
10145;BME280;5113;41.822;23.564;2023-12-22T05:36:41;-11112.72;;;6.45;56.51
10145;BME280;5113;41.822;23.564;2023-12-22T05:39:48;-11146.72;;;7.68;54.08
10145;BME280;5113;41.822;23.564;2023-12-22T05:42:54;-11142.78;;;7.54;54.67
10145;BME280;5113;41.822;23.564;2023-12-22T05:46:03;-11163.03;;;8.27;53.36
10145;BME280;5113;41.822;23.564;2023-12-22T05:49:09;-11171.47;;;8.57;52.23
10145;BME280;5113;41.822;23.564;2023-12-22T05:52:16;-11140.81;;;7.47;54.94
10145;BME280;5113;41.822;23.564;2023-12-22T05:55:22;-11173.16;;;8.64;51.62
10145;BME280;5113;41.822;23.564;2023-12-22T05:58:29;-11148.69;;;7.75;54.03
10145;BME280;5113;41.822;23.564;2023-12-22T06:01:37;-11164.72;;;8.33;53.26
10145;BME280;5113;41.822;23.564;2023-12-22T06:04:43;-11132.81;;;7.18;55.25
10145;BME280;5113;41.822;23.564;2023-12-22T06:07:50;-11163.03;;;8.27;53.17
10145;BME280;5113;41.822;23.564;2023-12-22T06:10:57;-11179.03;;;8.85;52.13
10145;BME280;5113;41.822;23.564;2023-12-22T06:14:04;-11171.47;;;8.57;52.51
10145;BME280;5113;41.822;23.564;2023-12-22T06:17:12;-11175.09;;;8.71;52.98
10145;BME280;5113;41.822;23.564;2023-12-22T06:20:19;-11173.28;;;8.64;52.99
10145;BME280;5113;41.822;23.564;2023-12-22T06:23:26;-11163.59;;;8.29;53.69
10145;BME280;5113;41.822;23.564;2023-12-22T06:26:35;-11177.63;;;8.80;52.74
10145;BME280;5113;41.822;23.564;2023-12-22T06:29:42;-11186.63;;;9.12;52.33
10145;BME280;5113;41.822;23.564;2023-12-22T06:32:51;-11157.69;;;8.08;54.76
10145;BME280;5113;41.822;23.564;2023-12-22T06:35:57;-11152.34;;;7.88;54.17
10145;BME280;5113;41.822;23.564;2023-12-22T06:39:04;-11189.72;;;9.23;51.89
10145;BME280;5113;41.822;23.564;2023-12-22T06:42:10;-11157.97;;;8.09;55.02
10145;BME280;5113;41.822;23.564;2023-12-22T06:45:18;-11166.13;;;8.38;54.37
10145;BME280;5113;41.822;23.564;2023-12-22T06:48:27;-11187.34;;;9.15;53.12
10145;BME280;5113;41.822;23.564;2023-12-22T06:51:35;-11179.19;;;8.85;53.33
10145;BME280;5113;41.822;23.564;2023-12-22T06:54:42;-11184.94;;;9.06;53.22
10145;BME280;5113;41.822;23.564;2023-12-22T06:57:49;-11184.94;;;9.06;52.84
10145;BME280;5113;41.822;23.564;2023-12-22T07:00:56;-11182.41;;;8.97;53.60
10145;BME280;5113;41.822;23.564;2023-12-22T07:04:05;-11193.09;;;9.36;53.68
10145;BME280;5113;41.822;23.564;2023-12-22T07:07:12;-11197.47;;;9.51;52.43
10145;BME280;5113;41.822;23.564;2023-12-22T07:10:19;-11202.66;;;9.70;52.14
10145;BME280;5113;41.822;23.564;2023-12-22T07:13:26;-11202.53;;;9.70;52.91
10145;BME280;5113;41.822;23.564;2023-12-22T07:16:35;-11195.06;;;9.43;53.19
10145;BME280;5113;41.822;23.564;2023-12-22T07:19:44;-11183.13;;;9.00;54.88
10145;BME280;5113;41.822;23.564;2023-12-22T07:22:51;-11229.53;;;10.67;50.52
10145;BME280;5113;41.822;23.564;2023-12-22T07:26:00;-11208.28;;;9.90;52.72
10145;BME280;5113;41.822;23.564;2023-12-22T07:29:09;-11225.72;;;10.53;51.10
10145;BME280;5113;41.822;23.564;2023-12-22T07:32:16;-11205.19;;;9.79;53.46
10145;BME280;5113;41.822;23.564;2023-12-22T07:35:24;-11212.66;;;10.06;53.23
10145;BME280;5113;41.822;23.564;2023-12-22T07:38:30;-11165.97;;;8.38;56.87
10145;BME280;5113;41.822;23.564;2023-12-22T07:41:37;-11208.44;;;9.91;54.11
10145;BME280;5113;41.822;23.564;2023-12-22T07:44:43;-11189.88;;;9.24;55.06
10145;BME280;5113;41.822;23.564;2023-12-22T07:47:50;-11213.78;;;10.10;53.22
10145;BME280;5113;41.822;23.564;2023-12-22T07:50:59;-11222.06;;;10.40;53.51
10145;BME280;5113;41.822;23.564;2023-12-22T07:54:06;-11217.84;;;10.25;53.15
10145;BME280;5113;41.822;23.564;2023-12-22T07:57:13;-11201.25;;;9.65;54.81
10145;BME280;5113;41.822;23.564;2023-12-22T08:00:20;-11197.88;;;9.53;55.04
10145;BME280;5113;41.822;23.564;2023-12-22T08:03:26;-11204.22;;;9.76;54.58
10145;BME280;5113;41.822;23.564;2023-12-22T08:06:35;-11224.59;;;10.49;54.08
10145;BME280;5113;41.822;23.564;2023-12-22T08:09:42;-11249.66;;;11.40;51.55
10145;BME280;5113;41.822;23.564;2023-12-22T08:12:49;-11233.19;;;10.80;52.11
10145;BME280;5113;41.822;23.564;2023-12-22T08:15:55;-11246.13;;;11.27;51.21
10145;BME280;5113;41.822;23.564;2023-12-22T08:19:02;-11231.78;;;10.75;53.33
10145;BME280;5113;41.822;23.564;2023-12-22T08:22:10;-11206.03;;;9.82;56.28
10145;BME280;5113;41.822;23.564;2023-12-22T08:25:19;-11226.28;;;10.55;54.29
10145;BME280;5113;41.822;23.564;2023-12-22T08:28:26;-11226.56;;;10.56;54.71
10145;BME280;5113;41.822;23.564;2023-12-22T08:31:33;-11247.53;;;11.32;53.33
10145;BME280;5113;41.822;23.564;2023-12-22T08:34:40;-11238.94;;;11.01;53.40
10145;BME280;5113;41.822;23.564;2023-12-22T08:37:49;-11221.38;;;10.38;55.61
10145;BME280;5113;41.822;23.564;2023-12-22T08:40:56;-11241.19;;;11.09;54.38
10145;BME280;5113;41.822;23.564;2023-12-22T08:44:07;-11262.03;;;11.84;53.34
10145;BME280;5113;41.822;23.564;2023-12-22T08:47:15;-11258.94;;;11.73;52.73
10145;BME280;5113;41.822;23.564;2023-12-22T08:50:22;-11264.56;;;11.94;53.03
10145;BME280;5113;41.822;23.564;2023-12-22T08:53:29;-11285.53;;;12.69;51.37
10145;BME280;5113;41.822;23.564;2023-12-22T08:56:39;-11278.63;;;12.44;51.84
10145;BME280;5113;41.822;23.564;2023-12-22T08:59:45;-11259.50;;;11.75;52.84
10145;BME280;5113;41.822;23.564;2023-12-22T09:02:52;-11281.72;;;12.55;52.08
10145;BME280;5113;41.822;23.564;2023-12-22T09:05:59;-11264.56;;;11.94;53.04
10145;BME280;5113;41.822;23.564;2023-12-22T09:09:09;-11297.06;;;13.11;52.06
10145;BME280;5113;41.822;23.564;2023-12-22T09:12:16;-11246.56;;;11.29;55.00
10145;BME280;5113;41.822;23.564;2023-12-22T09:15:22;-11248.81;;;11.37;57.07
10145;BME280;5113;41.822;23.564;2023-12-22T09:18:29;-11231.06;;;10.73;58.57
10145;BME280;5113;41.822;23.564;2023-12-22T09:21:36;-11215.31;;;10.16;60.31
10145;BME280;5113;41.822;23.564;2023-12-22T09:24:44;-11259.22;;;11.74;57.39
10145;BME280;5113;41.822;23.564;2023-12-22T09:27:51;-11231.34;;;10.74;59.58
10145;BME280;5113;41.822;23.564;2023-12-22T09:30:57;-11228.13;;;10.62;61.03
10145;BME280;5113;41.822;23.564;2023-12-22T09:34:04;-11265.13;;;11.96;57.56
10145;BME280;5113;41.822;23.564;2023-12-22T09:37:11;-11235.03;;;10.87;59.53
10145;BME280;5113;41.822;23.564;2023-12-22T09:40:19;-11262.59;;;11.86;57.24
10145;BME280;5113;41.822;23.564;2023-12-22T09:43:27;-11251.47;;;11.46;58.78
10145;BME280;5113;41.822;23.564;2023-12-22T09:46:35;-11249.50;;;11.39;57.37
10145;BME280;5113;41.822;23.564;2023-12-22T09:49:42;-11252.47;;;11.50;59.02
10145;BME280;5113;41.822;23.564;2023-12-22T09:52:50;-11263.03;;;11.88;57.61
10145;BME280;5113;41.822;23.564;2023-12-22T09:55:59;-11264.16;;;11.92;57.06
10145;BME280;5113;41.822;23.564;2023-12-22T09:59:07;-11262.72;;;11.87;56.52
10145;BME280;5113;41.822;23.564;2023-12-22T10:02:14;-11250.50;;;11.43;57.64
10145;BME280;5113;41.822;23.564;2023-12-22T10:05:20;-11270.63;;;12.15;56.62
10145;BME280;5113;41.822;23.564;2023-12-22T10:08:28;-11278.06;;;12.42;55.98
10145;BME280;5113;41.822;23.564;2023-12-22T10:11:37;-11255.56;;;11.61;57.51
10145;BME280;5113;41.822;23.564;2023-12-22T10:14:44;-11292.72;;;12.95;54.45
10145;BME280;5113;41.822;23.564;2023-12-22T10:17:52;-11303.41;;;13.34;53.47
10145;BME280;5113;41.822;23.564;2023-12-22T10:20:59;-11290.31;;;12.86;54.67
10145;BME280;5113;41.822;23.564;2023-12-22T10:24:06;-11302.56;;;13.31;54.41
10145;BME280;5113;41.822;23.564;2023-12-22T10:27:15;-11301.44;;;13.27;54.20
10145;BME280;5113;41.822;23.564;2023-12-22T10:30:27;-11314.25;;;13.73;53.15
10145;BME280;5113;41.822;23.564;2023-12-22T10:33:35;-11327.63;;;14.21;52.04
10145;BME280;5113;41.822;23.564;2023-12-22T10:36:42;-11326.22;;;14.16;53.66
10145;BME280;5113;41.822;23.564;2023-12-22T10:39:52;-11329.31;;;14.27;53.61
10145;BME280;5113;41.822;23.564;2023-12-22T10:43:00;-11341.44;;;14.71;52.69
10145;BME280;5113;41.822;23.564;2023-12-22T10:46:07;-11327.34;;;14.20;53.35
10145;BME280;5113;41.822;23.564;2023-12-22T10:49:17;-11289.75;;;12.84;53.95
10145;BME280;5113;41.822;23.564;2023-12-22T10:52:24;-11254.72;;;11.58;56.58
10145;BME280;5113;41.822;23.564;2023-12-22T10:55:30;-11251.75;;;11.47;57.27
10145;BME280;5113;41.822;23.564;2023-12-22T10:58:38;-11284.56;;;12.66;54.49
10145;BME280;5113;41.822;23.564;2023-12-22T11:01:45;-11277.38;;;12.40;54.99
10145;BME280;5113;41.822;23.564;2023-12-22T11:04:57;-11266.25;;;12.00;56.02
10145;BME280;5113;41.822;23.564;2023-12-22T11:08:07;-11277.38;;;12.40;55.99
10145;BME280;5113;41.822;23.564;2023-12-22T11:11:23;-11284.56;;;12.66;55.75
10145;BME280;5113;41.822;23.564;2023-12-22T11:14:36;-11271.31;;;12.18;56.79
10145;BME280;5113;41.822;23.564;2023-12-22T11:17:44;-11318.34;;;13.87;53.50
10145;BME280;5113;41.822;23.564;2023-12-22T11:20:54;-11287.91;;;12.78;54.13
10145;BME280;5113;41.822;23.564;2023-12-22T11:24:01;-11284.00;;;12.64;55.26
10145;BME280;5113;41.822;23.564;2023-12-22T11:27:10;-11276.66;;;12.37;56.57
10145;BME280;5113;41.822;23.564;2023-12-22T11:30:20;-11254.16;;;11.56;58.05
10145;BME280;5113;41.822;23.564;2023-12-22T11:33:29;-11318.75;;;13.89;52.24
10145;BME280;5113;41.822;23.564;2023-12-22T11:36:38;-11299.47;;;13.19;53.76
10145;BME280;5113;41.822;23.564;2023-12-22T11:39:45;-11292.72;;;12.95;54.42
10145;BME280;5113;41.822;23.564;2023-12-22T11:42:52;-11291.31;;;12.90;54.29
10145;BME280;5113;41.822;23.564;2023-12-22T11:46:03;-11267.94;;;12.06;55.89
10145;BME280;5113;41.822;23.564;2023-12-22T11:49:10;-11275.69;;;12.34;55.35
10145;BME280;5113;41.822;23.564;2023-12-22T11:52:25;-11291.72;;;12.92;54.97
10145;BME280;5113;41.822;23.564;2023-12-22T11:55:55;-11260.06;;;11.77;56.37
10145;BME280;5113;41.822;23.564;2023-12-22T11:59:02;-11244.44;;;11.21;59.08
10145;BME280;5113;41.822;23.564;2023-12-22T12:02:12;-11250.50;;;11.43;58.33
10145;BME280;5113;41.822;23.564;2023-12-22T12:05:19;-11228.53;;;10.64;59.53
10145;BME280;5113;41.822;23.564;2023-12-22T12:08:29;-11246.97;;;11.30;58.86
10145;BME280;5113;41.822;23.564;2023-12-22T12:12:09;-11247.41;;;11.32;58.34
10145;BME280;5113;41.822;23.564;2023-12-22T12:15:17;-11247.69;;;11.33;57.63
10145;BME280;5113;41.822;23.564;2023-12-22T12:18:27;-11270.19;;;12.14;55.94
10145;BME280;5113;41.822;23.564;2023-12-22T12:21:35;-11258.50;;;11.72;56.68
10145;BME280;5113;41.822;23.564;2023-12-22T12:24:41;-11236.16;;;10.91;58.70
10145;BME280;5113;41.822;23.564;2023-12-22T12:27:51;-11241.63;;;11.11;58.17
10145;BME280;5113;41.822;23.564;2023-12-22T12:31:08;-11256.69;;;11.65;56.45
10145;BME280;5113;41.822;23.564;2023-12-22T12:34:16;-11237.28;;;10.95;58.06
10145;BME280;5113;41.822;23.564;2023-12-22T12:37:26;-11277.50;;;12.40;55.83
10145;BME280;5113;41.822;23.564;2023-12-22T12:40:33;-11262.88;;;11.87;56.23
10145;BME280;5113;41.822;23.564;2023-12-22T12:43:45;-11264.00;;;11.92;57.51
10145;BME280;5113;41.822;23.564;2023-12-22T12:46:51;-11271.59;;;12.19;55.41
10145;BME280;5113;41.822;23.564;2023-12-22T12:50:00;-11265.41;;;11.97;56.38
10145;BME280;5113;41.822;23.564;2023-12-22T12:53:08;-11263.72;;;11.90;56.66
10145;BME280;5113;41.822;23.564;2023-12-22T12:56:15;-11266.53;;;12.01;56.08
10145;BME280;5113;41.822;23.564;2023-12-22T12:59:21;-11252.75;;;11.51;57.83
10145;BME280;5113;41.822;23.564;2023-12-22T13:02:29;-11243.59;;;11.18;57.07
10145;BME280;5113;41.822;23.564;2023-12-22T13:05:37;-11301.72;;;13.28;53.44
10145;BME280;5113;41.822;23.564;2023-12-22T13:08:50;-11285.81;;;12.70;54.66
10145;BME280;5113;41.822;23.564;2023-12-22T13:11:57;-11293.84;;;12.99;53.10
10145;BME280;5113;41.822;23.564;2023-12-22T13:15:04;-11341.44;;;14.71;50.79
10145;BME280;5113;41.822;23.564;2023-12-22T13:18:11;-11336.50;;;14.53;50.14
10145;BME280;5113;41.822;23.564;2023-12-22T13:21:19;-11318.34;;;13.87;52.94
10145;BME280;5113;41.822;23.564;2023-12-22T13:24:26;-11289.06;;;12.82;54.55
10145;BME280;5113;41.822;23.564;2023-12-22T13:27:44;-11311.28;;;13.62;53.98
10145;BME280;5113;41.822;23.564;2023-12-22T13:30:51;-11285.53;;;12.69;54.85
10145;BME280;5113;41.822;23.564;2023-12-22T13:34:00;-11286.66;;;12.73;55.00
10145;BME280;5113;41.822;23.564;2023-12-22T13:37:08;-11300.47;;;13.23;53.88
10145;BME280;5113;41.822;23.564;2023-12-22T13:40:14;-11282.28;;;12.57;56.02
10145;BME280;5113;41.822;23.564;2023-12-22T13:43:21;-11325.66;;;14.14;51.68
10145;BME280;5113;41.822;23.564;2023-12-22T13:46:28;-11310.88;;;13.61;53.21
10145;BME280;5113;41.822;23.564;2023-12-22T13:49:35;-11285.97;;;12.71;55.04
10145;BME280;5113;41.822;23.564;2023-12-22T13:52:43;-11281.72;;;12.55;56.62
10145;BME280;5113;41.822;23.564;2023-12-22T13:55:54;-11294.81;;;13.03;55.69
10145;BME280;5113;41.822;23.564;2023-12-22T13:59:01;-11311.84;;;13.64;53.48
10145;BME280;5113;41.822;23.564;2023-12-22T14:02:08;-11279.47;;;12.47;55.47
10145;BME280;5113;41.822;23.564;2023-12-22T14:05:15;-11274.69;;;12.30;55.77
10145;BME280;5113;41.822;23.564;2023-12-22T14:08:23;-11220.53;;;10.35;60.92
10145;BME280;5113;41.822;23.564;2023-12-22T14:11:30;-11228.81;;;10.65;54.85
10145;BME280;5113;41.822;23.564;2023-12-22T14:14:37;-11234.19;;;10.84;53.75
10145;BME280;5113;41.822;23.564;2023-12-22T14:17:43;-11258.38;;;11.71;52.19
10145;BME280;5113;41.822;23.564;2023-12-22T14:20:50;-11239.78;;;11.04;52.73
10145;BME280;5113;41.822;23.564;2023-12-22T14:23:58;-11252.75;;;11.51;53.30
10145;BME280;5113;41.822;23.564;2023-12-22T14:27:05;-11256.25;;;11.64;52.09
10145;BME280;5113;41.822;23.564;2023-12-22T14:30:12;-11239.38;;;11.03;53.39
10145;BME280;5113;41.822;23.564;2023-12-22T14:33:19;-11228.53;;;10.64;53.94
10145;BME280;5113;41.822;23.564;2023-12-22T14:36:25;-11238.94;;;11.01;53.30
10145;BME280;5113;41.822;23.564;2023-12-22T14:39:34;-11249.94;;;11.41;53.52
10145;BME280;5113;41.822;23.564;2023-12-22T14:42:41;-11242.59;;;11.14;53.73
10145;BME280;5113;41.822;23.564;2023-12-22T14:45:47;-11245.28;;;11.24;53.57
10145;BME280;5113;41.822;23.564;2023-12-22T14:48:54;-11265.13;;;11.96;50.74
10145;BME280;5113;41.822;23.564;2023-12-22T14:52:00;-11260.34;;;11.78;50.39
10145;BME280;5113;41.822;23.564;2023-12-22T14:55:10;-11248.81;;;11.37;50.52
10145;BME280;5113;41.822;23.564;2023-12-22T14:58:16;-11231.06;;;10.73;52.08
10145;BME280;5113;41.822;23.564;2023-12-22T15:01:23;-11239.22;;;11.02;51.32
10145;BME280;5113;41.822;23.564;2023-12-22T15:04:31;-11243.19;;;11.16;52.08
10145;BME280;5113;41.822;23.564;2023-12-22T15:07:39;-11238.38;;;10.99;51.51
10145;BME280;5113;41.822;23.564;2023-12-22T15:10:47;-11241.19;;;11.09;51.69
10145;BME280;5113;41.822;23.564;2023-12-22T15:13:54;-11229.94;;;10.69;52.17
10145;BME280;5113;41.822;23.564;2023-12-22T15:17:01;-11233.19;;;10.80;51.76
10145;BME280;5113;41.822;23.564;2023-12-22T15:20:08;-11238.09;;;10.98;51.65
10145;BME280;5113;41.822;23.564;2023-12-22T15:23:17;-11223.75;;;10.46;51.52
10145;BME280;5113;41.822;23.564;2023-12-22T15:26:25;-11248.53;;;11.36;51.05
10145;BME280;5113;41.822;23.564;2023-12-22T15:29:33;-11230.50;;;10.71;52.68
10145;BME280;5113;41.822;23.564;2023-12-22T15:32:40;-11246.28;;;11.28;50.99
10145;BME280;5113;41.822;23.564;2023-12-22T15:35:46;-11285.69;;;12.70;48.76
10145;BME280;5113;41.822;23.564;2023-12-22T15:38:53;-11211.53;;;10.02;52.61
10145;BME280;5113;41.822;23.564;2023-12-22T15:42:02;-11221.78;;;10.39;52.73
10145;BME280;5113;41.822;23.564;2023-12-22T15:45:10;-11237.84;;;10.97;52.65
10145;BME280;5113;41.822;23.564;2023-12-22T15:48:17;-11233.88;;;10.83;52.70
10145;BME280;5113;41.822;23.564;2023-12-22T15:51:24;-11214.06;;;10.11;54.43
10145;BME280;5113;41.822;23.564;2023-12-22T15:54:31;-11242.03;;;11.12;52.83
10145;BME280;5113;41.822;23.564;2023-12-22T15:57:41;-11218.69;;;10.28;54.13
10145;BME280;5113;41.822;23.564;2023-12-22T16:00:47;-11224.31;;;10.48;52.22
10145;BME280;5113;41.822;23.564;2023-12-22T16:03:56;-11247.41;;;11.32;50.53
10145;BME280;5113;41.822;23.564;2023-12-22T16:07:03;-11249.09;;;11.38;50.23
10145;BME280;5113;41.822;23.564;2023-12-22T16:10:10;-11269.34;;;12.11;49.02
10145;BME280;5113;41.822;23.564;2023-12-22T16:13:18;-11231.63;;;10.75;48.82
10145;BME280;5113;41.822;23.564;2023-12-22T16:16:25;-11250.22;;;11.42;46.69
10145;BME280;5113;41.822;23.564;2023-12-22T16:19:32;-11254.44;;;11.57;47.31
10145;BME280;5113;41.822;23.564;2023-12-22T16:22:38;-11241.34;;;11.10;47.65
10145;BME280;5113;41.822;23.564;2023-12-22T16:25:45;-11259.78;;;11.76;45.61
10145;BME280;5113;41.822;23.564;2023-12-22T16:28:54;-11277.22;;;12.39;45.91